createdAt,value
2018-01-22T00:02:00.489Z,3.20
2018-01-22T00:04:30.087Z,3.20
2018-01-22T00:18:25.679Z,3.10
2018-01-22T00:20:54.907Z,3.00
2018-01-22T00:23:23.179Z,3.00
2018-01-22T00:25:57.145Z,3.00
2018-01-22T00:28:25.430Z,3.00
2018-01-22T00:30:57.135Z,3.00
2018-01-22T00:33:25.422Z,3.00
2018-01-22T00:35:55.706Z,3.00
2018-01-22T00:38:23.963Z,3.00
2018-01-22T00:40:59.250Z,3.00
2018-01-22T00:43:28.258Z,3.10
2018-01-22T00:45:58.570Z,3.00
2018-01-22T00:48:26.819Z,3.00
2018-01-22T00:50:55.066Z,3.00
2018-01-22T00:53:23.345Z,3.00
2018-01-22T00:55:52.546Z,3.10
2018-01-22T00:58:20.834Z,3.10
2018-01-22T01:00:49.094Z,3.10
2018-01-22T01:03:17.351Z,3.10
2018-01-22T01:05:46.634Z,3.20
2018-01-22T01:08:14.874Z,3.20
2018-01-22T01:10:44.254Z,3.10
2018-01-22T01:13:12.540Z,3.10
2018-01-22T01:15:40.857Z,3.20
2018-01-22T01:18:09.106Z,3.30
2018-01-22T01:20:38.378Z,3.20
2018-01-22T01:23:06.639Z,3.20
2018-01-22T01:25:41.113Z,3.10
2018-01-22T01:28:09.371Z,3.10
2018-01-22T01:30:41.429Z,3.10
2018-01-22T01:33:09.686Z,3.10
2018-01-22T01:35:38.973Z,3.00
2018-01-22T01:38:07.222Z,3.10
2018-01-22T01:40:35.591Z,3.10
2018-01-22T01:43:03.850Z,3.10
2018-01-22T01:45:32.107Z,3.10
2018-01-22T01:48:00.386Z,3.10
2018-01-22T01:50:29.590Z,3.10
2018-01-22T01:52:58.915Z,3.10
2018-01-22T01:55:27.162Z,3.10
2018-01-22T01:57:55.411Z,3.10
2018-01-22T02:00:23.696Z,3.10
2018-01-22T02:02:51.951Z,3.10
2018-01-22T02:05:22.199Z,3.10
2018-01-22T02:07:50.455Z,3.10
2018-01-22T02:10:18.746Z,3.20
2018-01-22T02:12:47.039Z,3.10
2018-01-22T02:15:16.215Z,3.10
2018-01-22T02:17:44.470Z,3.20
2018-01-22T02:20:13.843Z,3.20
2018-01-22T02:22:42.086Z,3.10
2018-01-22T02:25:10.338Z,3.20
2018-01-22T02:27:42.874Z,3.10
2018-01-22T02:30:14.062Z,3.10
2018-01-22T02:32:42.345Z,3.00
2018-01-22T02:35:10.608Z,3.00
2018-01-22T02:37:38.901Z,3.00
2018-01-22T02:40:07.148Z,3.10
2018-01-22T02:42:35.452Z,3.10
2018-01-22T02:45:03.714Z,3.10
2018-01-22T02:47:31.981Z,3.10
2018-01-22T02:50:00.272Z,3.10
2018-01-22T02:52:28.537Z,3.10
2018-01-22T02:54:56.814Z,3.10
2018-01-22T02:57:26.060Z,3.20
2018-01-22T02:59:54.353Z,3.10
2018-01-22T03:02:23.565Z,3.20
2018-01-22T03:04:51.806Z,3.20
2018-01-22T03:07:20.313Z,3.20
2018-01-22T03:09:48.569Z,3.30
2018-01-22T03:12:16.818Z,3.40
2018-01-22T03:14:45.105Z,3.40
2018-01-22T03:17:14.309Z,3.30
2018-01-22T03:19:42.572Z,3.30
2018-01-22T03:22:11.770Z,3.40
2018-01-22T03:24:40.065Z,3.40
2018-01-22T03:27:08.337Z,3.50
2018-01-22T03:29:36.853Z,3.50
2018-01-22T03:32:08.252Z,3.50
2018-01-22T03:34:36.533Z,3.50
2018-01-22T03:37:06.820Z,3.50
2018-01-22T03:39:35.066Z,3.50
2018-01-22T03:42:07.305Z,3.40
2018-01-22T03:44:35.600Z,3.40
2018-01-22T03:47:03.865Z,3.40
2018-01-22T03:49:35.349Z,3.40
2018-01-22T03:52:03.669Z,3.40
2018-01-22T03:54:32.117Z,3.40
2018-01-22T03:57:00.385Z,3.40
2018-01-22T03:59:28.965Z,3.40
2018-01-22T04:02:00.427Z,3.40
2018-01-22T04:04:29.010Z,3.50
2018-01-22T04:06:57.304Z,3.50
2018-01-22T04:09:25.620Z,3.50
2018-01-22T04:11:54.808Z,3.50
2018-01-22T04:14:23.116Z,3.50
2018-01-22T04:16:53.367Z,3.50
2018-01-22T04:19:21.629Z,3.60
2018-01-22T04:21:53.297Z,3.60
2018-01-22T04:24:20.800Z,3.60
2018-01-22T04:26:53.485Z,3.70
2018-01-22T04:29:21.773Z,3.70
2018-01-22T04:31:50.036Z,3.70
2018-01-22T04:34:18.312Z,3.70
2018-01-22T04:36:48.519Z,3.60
2018-01-22T04:39:16.809Z,3.70
2018-01-22T04:41:55.781Z,3.60
2018-01-22T04:44:24.028Z,3.60
2018-01-22T04:46:53.244Z,3.60
2018-01-22T04:49:21.525Z,3.60
2018-01-22T04:51:51.819Z,3.70
2018-01-22T04:54:19.320Z,3.70
2018-01-22T04:56:48.583Z,3.70
2018-01-22T04:59:16.880Z,3.60
2018-01-22T05:01:45.130Z,3.60
2018-01-22T05:04:13.405Z,3.70
2018-01-22T05:06:41.932Z,3.70
2018-01-22T05:09:10.209Z,3.70
2018-01-22T05:11:48.437Z,3.70
2018-01-22T05:14:16.691Z,3.70
2018-01-22T05:16:48.868Z,3.60
2018-01-22T05:19:17.139Z,3.70
2018-01-22T05:21:45.444Z,3.80
2018-01-22T05:24:13.711Z,3.80
2018-01-22T05:26:47.961Z,3.80
2018-01-22T05:29:16.260Z,3.90
2018-01-22T05:31:46.548Z,3.90
2018-01-22T05:34:14.933Z,3.90
2018-01-22T05:36:43.199Z,3.90
2018-01-22T05:39:11.465Z,3.90
2018-01-22T05:41:39.767Z,3.90
2018-01-22T05:44:08.017Z,4.00
2018-01-22T05:46:35.537Z,3.90
2018-01-22T05:49:03.832Z,4.00
2018-01-22T05:51:33.073Z,3.90
2018-01-22T05:54:01.337Z,3.90
2018-01-22T05:56:29.603Z,3.90
2018-01-22T05:58:58.578Z,4.00
2018-01-22T06:01:30.076Z,3.90
2018-01-22T06:03:59.254Z,3.90
2018-01-22T06:06:27.573Z,4.00
2018-01-22T06:08:55.852Z,4.00
2018-01-22T06:11:23.379Z,4.00
2018-01-22T06:13:51.635Z,3.90
2018-01-22T06:16:19.932Z,4.00
2018-01-22T06:18:48.185Z,4.00
2018-01-22T06:21:16.475Z,4.10
2018-01-22T06:23:44.740Z,4.10
2018-01-22T06:26:13.025Z,4.10
2018-01-22T06:28:41.310Z,4.10
2018-01-22T06:31:09.572Z,4.10
2018-01-22T06:33:37.852Z,4.10
2018-01-22T06:36:08.091Z,4.10
2018-01-22T06:38:36.369Z,4.10
2018-01-22T06:41:04.621Z,4.10
2018-01-22T06:43:32.911Z,4.20
2018-01-22T06:46:02.127Z,4.20
2018-01-22T06:48:30.409Z,4.20
2018-01-22T06:51:00.034Z,4.30
2018-01-22T06:53:29.272Z,4.30
2018-01-22T06:55:58.323Z,4.30
2018-01-22T06:58:26.615Z,4.30
2018-01-22T07:00:55.881Z,4.30
2018-01-22T07:03:24.157Z,4.30
2018-01-22T07:05:53.399Z,4.40
2018-01-22T07:08:21.706Z,4.40
2018-01-22T07:10:49.941Z,4.30
2018-01-22T07:13:18.188Z,4.40
2018-01-22T07:15:46.461Z,4.40
2018-01-22T07:18:14.737Z,4.40
2018-01-22T07:20:43.013Z,4.40
2018-01-22T07:23:11.297Z,4.40
2018-01-22T07:25:40.523Z,4.50
2018-01-22T07:28:08.805Z,4.50
2018-01-22T07:30:37.068Z,4.50
2018-01-22T07:33:05.345Z,4.50
2018-01-22T07:35:33.665Z,4.60
2018-01-22T07:38:01.936Z,4.70
2018-01-22T07:40:30.185Z,4.70
2018-01-22T07:42:59.401Z,4.70
2018-01-22T07:45:28.573Z,4.60
2018-01-22T07:47:56.844Z,4.70
2018-01-22T07:50:25.128Z,4.60
2018-01-22T07:52:53.392Z,4.60
2018-01-22T07:55:26.232Z,4.70
2018-01-22T07:57:54.528Z,4.80
2018-01-22T08:00:22.824Z,4.90
2018-01-22T08:02:50.323Z,4.90
2018-01-22T08:05:18.609Z,4.90
2018-01-22T08:07:46.899Z,4.90
2018-01-22T08:10:15.200Z,4.90
2018-01-22T08:12:43.462Z,4.90
2018-01-22T08:15:11.749Z,5.00
2018-01-22T08:17:40.011Z,5.00
2018-01-22T08:20:08.304Z,5.00
2018-01-22T08:22:36.565Z,5.00
2018-01-22T08:25:12.582Z,5.10
2018-01-22T08:27:40.829Z,5.10
2018-01-22T08:30:10.041Z,5.00
2018-01-22T08:32:38.331Z,5.10
2018-01-22T08:35:07.560Z,5.20
2018-01-22T08:37:35.864Z,5.20
2018-01-22T08:40:05.057Z,5.30
2018-01-22T08:42:33.323Z,5.30
2018-01-22T08:45:01.620Z,5.40
2018-01-22T08:47:29.884Z,5.40
2018-01-22T08:50:02.003Z,5.40
2018-01-22T08:52:30.268Z,5.50
2018-01-22T08:54:58.575Z,5.50
2018-01-22T08:57:26.835Z,5.50
2018-01-22T08:59:57.036Z,5.60
2018-01-22T09:02:25.277Z,5.70
2018-01-22T09:04:53.525Z,5.90
2018-01-22T09:07:21.801Z,5.90
2018-01-22T09:09:51.024Z,6.40
2018-01-22T09:12:19.332Z,6.50
2018-01-22T09:14:49.580Z,6.50
2018-01-22T09:17:17.865Z,6.70
2018-01-22T09:19:50.077Z,6.70
2018-01-22T09:22:18.375Z,6.80
2018-01-22T09:24:47.601Z,6.90
2018-01-22T09:27:15.864Z,7.20
2018-01-22T09:29:47.521Z,7.20
2018-01-22T09:32:15.769Z,7.20
2018-01-22T09:34:44.140Z,7.20
2018-01-22T09:37:12.399Z,7.30
2018-01-22T09:39:41.625Z,7.30
2018-01-22T09:42:09.901Z,7.50
2018-01-22T09:44:40.100Z,7.40
2018-01-22T09:47:08.378Z,7.40
2018-01-22T09:49:36.662Z,7.30
2018-01-22T09:52:04.909Z,7.30
2018-01-22T09:54:35.195Z,7.30
2018-01-22T09:57:03.445Z,7.50
2018-01-22T09:59:35.884Z,7.60
2018-01-22T10:02:04.129Z,7.60
2018-01-22T10:04:32.409Z,7.50
2018-01-22T10:07:00.675Z,7.60
2018-01-22T10:09:30.073Z,7.70
2018-01-22T10:11:59.341Z,7.70
2018-01-22T10:14:27.599Z,7.70
2018-01-22T10:17:00.973Z,7.70
2018-01-22T10:19:30.551Z,7.70
2018-01-22T10:21:59.506Z,7.60
2018-01-22T10:24:28.885Z,7.90
2018-01-22T10:26:57.151Z,7.80
2018-01-22T10:29:25.412Z,7.80
2018-01-22T10:31:58.245Z,7.70
2018-01-22T10:34:26.485Z,7.80
2018-01-22T10:36:54.750Z,7.90
2018-01-22T10:39:23.033Z,7.80
2018-01-22T10:41:53.208Z,7.90
2018-01-22T10:44:21.512Z,8.00
2018-01-22T10:46:56.789Z,8.00
2018-01-22T10:49:25.047Z,8.00
2018-01-22T10:51:52.525Z,8.00
2018-01-22T10:54:20.827Z,8.00
2018-01-22T10:56:49.123Z,8.10
2018-01-22T10:59:17.382Z,8.20
2018-01-22T11:01:50.953Z,8.00
2018-01-22T11:04:19.340Z,8.00
2018-01-22T11:06:47.600Z,8.00
2018-01-22T11:09:15.865Z,8.10
2018-01-22T11:11:44.145Z,8.10
2018-01-22T11:14:12.408Z,8.20
2018-01-22T11:16:40.690Z,8.20
2018-01-22T11:19:08.952Z,8.30
2018-01-22T11:21:36.503Z,8.30
2018-01-22T11:24:04.749Z,8.00
2018-01-22T11:26:32.997Z,8.10
2018-01-22T11:29:01.292Z,8.20
2018-01-22T11:31:31.072Z,8.20
2018-01-22T11:34:00.562Z,8.20
2018-01-22T11:36:30.276Z,8.20
2018-01-22T11:38:58.521Z,8.30
2018-01-22T11:41:26.769Z,8.30
2018-01-22T11:43:55.045Z,8.30
2018-01-22T11:46:23.285Z,8.20
2018-01-22T11:48:51.573Z,8.30
2018-01-22T11:51:19.864Z,8.30
2018-01-22T11:53:48.160Z,8.30
2018-01-22T11:56:17.391Z,8.40
2018-01-22T11:58:45.696Z,8.40
2018-01-22T12:01:13.951Z,8.40
2018-01-22T12:03:42.193Z,8.50
2018-01-22T12:06:16.221Z,8.40
2018-01-22T12:08:44.467Z,8.50
2018-01-22T12:11:12.774Z,8.40
2018-01-22T12:13:41.044Z,8.40
2018-01-22T12:16:08.544Z,8.40
2018-01-22T12:18:36.844Z,8.30
2018-01-22T12:21:06.081Z,8.30
2018-01-22T12:23:34.329Z,8.30
2018-01-22T12:26:02.602Z,8.30
2018-01-22T12:28:30.846Z,8.40
2018-01-22T12:31:01.032Z,8.30
2018-01-22T12:33:30.615Z,8.40
2018-01-22T12:35:59.432Z,8.50
2018-01-22T12:38:27.721Z,8.40
2018-01-22T12:40:56.012Z,8.30
2018-01-22T12:43:23.495Z,8.30
2018-01-22T12:45:51.765Z,8.10
2018-01-22T12:48:20.056Z,8.20
2018-01-22T12:51:00.847Z,8.20
2018-01-22T12:53:29.962Z,8.20
2018-01-22T12:55:58.987Z,8.30
2018-01-22T12:58:27.261Z,8.20
2018-01-22T13:00:58.288Z,8.40
2018-01-22T13:03:26.557Z,8.40
2018-01-22T13:05:54.824Z,8.50
2018-01-22T13:08:23.098Z,8.40
2018-01-22T13:10:55.093Z,8.40
2018-01-22T13:13:22.614Z,8.40
2018-01-22T13:15:50.907Z,8.60
2018-01-22T13:18:23.480Z,8.70
2018-01-22T13:20:53.630Z,8.60
2018-01-22T13:23:21.923Z,8.50
2018-01-22T13:25:50.162Z,8.70
2018-01-22T13:28:36.049Z,8.80
2018-01-22T13:31:04.285Z,8.70
2018-01-22T13:33:32.528Z,8.60
2018-01-22T13:36:00.805Z,8.50
2018-01-22T13:38:46.234Z,8.60
2018-01-22T13:41:14.508Z,8.60
2018-01-22T13:43:42.759Z,8.50
2018-01-22T13:46:11.033Z,8.60
2018-01-22T13:48:49.727Z,8.60
2018-01-22T13:51:17.984Z,8.70
2018-01-22T13:53:46.224Z,8.60
2018-01-22T13:56:14.518Z,8.60
2018-01-22T13:58:48.246Z,8.60
2018-01-22T14:01:16.525Z,8.40
2018-01-22T14:03:51.081Z,8.40
2018-01-22T14:06:19.361Z,8.50
2018-01-22T14:08:48.548Z,8.50
2018-01-22T14:11:16.825Z,8.40
2018-01-22T14:13:46.103Z,8.40
2018-01-22T14:16:14.373Z,8.50
2018-01-22T14:18:52.475Z,8.50
2018-01-22T14:21:20.801Z,8.50
2018-01-22T14:23:49.915Z,8.60
2018-01-22T14:26:18.205Z,8.60
2018-01-22T14:28:50.826Z,8.60
2018-01-22T14:31:19.098Z,8.50
2018-01-22T14:33:50.013Z,8.50
2018-01-22T14:36:18.272Z,8.60
2018-01-22T14:38:48.487Z,8.60
2018-01-22T14:41:16.752Z,8.50
2018-01-22T14:43:55.908Z,8.50
2018-01-22T14:46:24.163Z,8.50
2018-01-22T14:48:53.463Z,8.40
2018-01-22T14:51:21.709Z,8.40
2018-01-22T14:53:53.560Z,8.40
2018-01-22T14:56:21.841Z,8.40
2018-01-22T14:58:53.819Z,8.50
2018-01-22T15:01:22.090Z,8.60
2018-01-22T15:03:51.344Z,8.60
2018-01-22T15:06:19.636Z,8.50
2018-01-22T15:08:54.861Z,8.40
2018-01-22T15:11:23.156Z,8.40
2018-01-22T15:13:51.407Z,8.40
2018-01-22T15:16:19.700Z,8.40
2018-01-22T15:18:58.997Z,8.40
2018-01-22T15:21:28.820Z,8.30
2018-01-22T15:23:57.150Z,8.30
2018-01-22T15:26:25.443Z,8.40
2018-01-22T15:28:53.686Z,8.40
2018-01-22T15:31:21.925Z,8.50
2018-01-22T15:33:50.201Z,8.40
2018-01-22T15:36:18.484Z,8.40
2018-01-22T15:38:46.726Z,8.30
2018-01-22T15:41:15.023Z,8.30
2018-01-22T15:43:46.746Z,8.30
2018-01-22T15:46:15.029Z,8.30
2018-01-22T15:48:43.289Z,8.30
2018-01-22T15:51:11.560Z,8.20
2018-01-22T15:53:40.817Z,8.20
2018-01-22T15:56:09.083Z,8.10
2018-01-22T15:58:42.248Z,8.10
2018-01-22T16:01:10.504Z,8.10
2018-01-22T16:03:38.759Z,8.10
2018-01-22T16:06:07.052Z,8.10
2018-01-22T16:08:35.307Z,8.20
2018-01-22T16:11:03.565Z,8.20
2018-01-22T16:13:33.781Z,8.30
2018-01-22T16:16:02.057Z,8.20
2018-01-22T16:18:30.297Z,8.20
2018-01-22T16:20:58.592Z,8.10
2018-01-22T16:23:26.852Z,8.20
2018-01-22T16:25:59.632Z,8.20
2018-01-22T16:28:28.555Z,8.00
2018-01-22T16:30:56.856Z,7.90
2018-01-22T16:33:25.093Z,7.80
2018-01-22T16:35:53.371Z,7.80
2018-01-22T16:38:21.703Z,7.70
2018-01-22T16:40:49.965Z,7.80
2018-01-22T16:43:19.228Z,7.90
2018-01-22T16:45:47.487Z,7.90
2018-01-22T16:48:18.912Z,8.00
2018-01-22T16:50:47.175Z,7.80
2018-01-22T16:53:16.440Z,7.70
2018-01-22T16:55:44.689Z,7.70
2018-01-22T16:58:12.925Z,7.70
2018-01-22T17:00:41.218Z,7.80
2018-01-22T17:03:09.457Z,7.90
2018-01-22T17:05:37.742Z,7.80
2018-01-22T17:08:05.987Z,7.80
2018-01-22T17:10:34.225Z,7.80
2018-01-22T17:13:08.149Z,7.80
2018-01-22T17:15:36.411Z,7.80
2018-01-22T17:18:05.609Z,7.90
2018-01-22T17:20:33.901Z,7.70
2018-01-22T17:23:04.127Z,7.70
2018-01-22T17:25:32.409Z,7.70
2018-01-22T17:28:03.809Z,7.80
2018-01-22T17:30:32.101Z,7.80
2018-01-22T17:33:00.345Z,7.70
2018-01-22T17:35:29.097Z,7.90
2018-01-22T17:37:58.176Z,7.80
2018-01-22T17:40:26.450Z,7.70
2018-01-22T17:42:54.745Z,7.80
2018-01-22T17:45:23.025Z,7.80
2018-01-22T17:47:52.221Z,7.90
2018-01-22T17:50:20.508Z,7.80
2018-01-22T17:52:48.804Z,7.80
2018-01-22T17:55:24.063Z,7.70
2018-01-22T17:57:52.390Z,7.80
2018-01-22T18:00:21.648Z,7.90
2018-01-22T18:02:49.927Z,7.90
2018-01-22T18:05:18.203Z,7.80
2018-01-22T18:07:46.473Z,7.70
2018-01-22T18:10:14.805Z,7.80
2018-01-22T18:12:43.068Z,7.70
2018-01-22T18:15:11.313Z,7.80
2018-01-22T18:17:41.536Z,7.80
2018-01-22T18:20:09.835Z,7.80
2018-01-22T18:22:39.082Z,7.80
2018-01-22T18:25:07.336Z,7.70
2018-01-22T18:27:35.425Z,7.70
2018-01-22T18:30:03.792Z,7.70
2018-01-22T18:32:33.016Z,7.70
2018-01-22T18:35:01.308Z,7.70
2018-01-22T18:37:29.643Z,7.60
2018-01-22T18:39:58.564Z,7.70
2018-01-22T18:42:28.623Z,7.80
2018-01-22T18:44:56.876Z,7.70
2018-01-22T18:47:25.233Z,7.60
2018-01-22T18:49:53.473Z,7.70
2018-01-22T18:52:21.709Z,7.70
2018-01-22T18:54:50.010Z,7.60
2018-01-22T18:57:18.259Z,7.60
2018-01-22T18:59:46.553Z,7.50
2018-01-22T19:02:14.817Z,7.60
2018-01-22T19:04:43.103Z,7.60
2018-01-22T19:07:11.398Z,7.50
2018-01-22T19:09:39.688Z,7.60
2018-01-22T19:12:08.923Z,7.50
2018-01-22T19:14:37.162Z,7.50
2018-01-22T19:17:09.765Z,7.60
2018-01-22T19:19:38.015Z,7.50
2018-01-22T19:22:06.359Z,7.50
2018-01-22T19:24:34.652Z,7.60
2018-01-22T19:27:03.009Z,7.50
2018-01-22T19:29:31.280Z,7.70
2018-01-22T19:32:00.152Z,7.60
2018-01-22T19:34:29.041Z,7.60
2018-01-22T19:37:00.297Z,7.50
2018-01-22T19:39:29.049Z,7.50
2018-01-22T19:41:58.219Z,7.60
2018-01-22T19:44:26.531Z,7.50
2018-01-22T19:47:13.796Z,7.50
2018-01-22T19:49:42.084Z,7.50
2018-01-22T19:52:20.288Z,7.40
2018-01-22T19:54:48.584Z,7.50
2018-01-22T19:57:20.409Z,7.50
2018-01-22T19:59:48.751Z,7.40
2018-01-22T20:02:20.462Z,7.40
2018-01-22T20:04:48.805Z,7.50
2018-01-22T20:07:17.050Z,7.40
2018-01-22T20:09:45.346Z,7.40
2018-01-22T20:12:13.679Z,7.30
2018-01-22T20:14:41.987Z,7.30
2018-01-22T20:17:11.291Z,7.30
2018-01-22T20:19:39.528Z,7.40
2018-01-22T20:22:07.866Z,7.40
2018-01-22T20:24:36.171Z,7.40
2018-01-22T20:27:10.339Z,7.30
2018-01-22T20:29:38.636Z,7.30
2018-01-22T20:32:09.968Z,7.50
2018-01-22T20:34:38.283Z,7.40
2018-01-22T20:37:07.437Z,7.30
2018-01-22T20:39:35.778Z,7.30
2018-01-22T20:42:06.070Z,7.30
2018-01-22T20:44:34.401Z,7.20
2018-01-22T20:47:02.651Z,7.20
2018-01-22T20:49:30.975Z,7.20
2018-01-22T20:52:00.638Z,7.30
2018-01-22T20:54:30.189Z,7.30
2018-01-22T20:56:59.390Z,7.30
2018-01-22T20:59:27.690Z,7.30
2018-01-22T21:01:55.952Z,7.30
2018-01-22T21:04:34.376Z,7.50
2018-01-22T21:07:01.863Z,7.50
2018-01-22T21:09:30.223Z,7.30
2018-01-22T21:11:58.464Z,7.30
2018-01-22T21:14:26.724Z,7.30
2018-01-22T21:16:55.040Z,7.30
2018-01-22T21:19:23.300Z,7.20
2018-01-22T21:21:51.596Z,7.20
2018-01-22T21:24:19.866Z,7.30
2018-01-22T21:26:49.097Z,7.30
2018-01-22T21:29:17.425Z,7.30
2018-01-22T21:31:45.733Z,7.20
2018-01-22T21:34:19.556Z,7.30
2018-01-22T21:36:47.849Z,7.30
2018-01-22T21:39:16.140Z,7.30
2018-01-22T21:41:44.416Z,7.30
2018-01-22T21:44:16.923Z,7.30
2018-01-22T21:46:45.262Z,7.30
2018-01-22T21:49:13.543Z,7.30
2018-01-22T21:51:41.913Z,7.30
2018-01-22T21:54:23.173Z,7.40
2018-01-22T21:56:51.476Z,7.30
2018-01-22T21:59:19.787Z,7.30
2018-01-22T22:01:48.081Z,7.30
2018-01-22T22:04:16.419Z,7.40
2018-01-22T22:06:44.715Z,7.30
2018-01-22T22:09:13.011Z,7.30
2018-01-22T22:11:41.271Z,7.20
2018-01-22T22:14:10.469Z,7.10
2018-01-22T22:16:38.741Z,7.20
2018-01-22T22:19:07.903Z,7.20
2018-01-22T22:21:36.254Z,7.30
2018-01-22T22:24:05.466Z,7.30
2018-01-22T22:26:33.700Z,7.30
2018-01-22T22:29:01.992Z,7.30
2018-01-22T22:31:30.261Z,7.20
2018-01-22T22:33:58.571Z,7.30
2018-01-22T22:36:26.833Z,7.20
2018-01-22T22:38:56.141Z,7.20
2018-01-22T22:41:24.395Z,7.20
2018-01-22T22:43:52.898Z,7.20
2018-01-22T22:46:21.155Z,7.20
2018-01-22T22:48:53.039Z,7.10
2018-01-22T22:51:21.305Z,7.10
2018-01-22T22:53:49.554Z,7.10
2018-01-22T22:56:17.844Z,7.10
2018-01-22T22:58:48.052Z,7.20
2018-01-22T23:01:16.288Z,7.10
2018-01-22T23:03:46.503Z,7.10
2018-01-22T23:06:14.810Z,7.00
2018-01-22T23:08:43.062Z,7.00
2018-01-22T23:11:11.347Z,7.00
2018-01-22T23:13:40.600Z,7.00
2018-01-22T23:16:08.849Z,7.00
2018-01-22T23:18:38.046Z,7.00
2018-01-22T23:21:06.285Z,7.00
2018-01-22T23:23:34.539Z,7.00
2018-01-22T23:26:02.828Z,7.00
2018-01-22T23:28:37.372Z,7.00
2018-01-22T23:31:05.641Z,7.00
2018-01-22T23:33:34.895Z,7.10
2018-01-22T23:36:03.181Z,7.20
2018-01-22T23:38:32.409Z,7.10
2018-01-22T23:41:00.654Z,7.20
2018-01-22T23:43:30.191Z,7.20
2018-01-22T23:45:57.681Z,7.20
2018-01-22T23:48:25.949Z,7.10
2018-01-22T23:50:54.237Z,7.10
2018-01-22T23:53:23.461Z,7.00
2018-01-22T23:55:51.709Z,7.00
2018-01-22T23:58:20.004Z,7.00
